Time;durP1;ratioP1;P1;durP2;ratioP2;P2;SDS_P1;SDS_P2;PMS_P1;PMS_P2;Temp;Humidity;BMP_temperature;BMP_pressure;BME280_temperature;BME280_humidity;BME280_pressure;Samples;Min_cycle;Max_cycle;Signal;HPM_P1;HPM_P2
2022/10/13 04:13:55;;;;;;;65.90;33.22;;;;;;;7.16;100.00;101156.06;5556874;32;177598;-87
2022/10/13 04:16:58;;;;;;;69.32;35.28;;;;;;;7.07;100.00;101149.22;5542508;32;34705;-87
2022/10/13 04:20:02;;;;;;;60.35;32.22;;;;;;;7.10;100.00;101151.78;5542511;32;33570;-87
2022/10/13 04:23:06;;;;;;;60.03;32.22;;;;;;;7.06;100.00;101149.25;5545051;32;32434;-87
2022/10/13 04:26:19;;;;;;;51.88;30.50;;;;;;;7.06;100.00;101151.91;5548346;32;32072;-87
2022/10/13 04:29:22;;;;;;;50.83;29.75;;;;;;;7.07;100.00;101149.22;5542532;32;34389;-87
2022/10/13 04:32:26;;;;;;;46.72;28.17;;;;;;;7.07;100.00;101143.06;5542253;32;34319;-87
2022/10/13 04:35:29;;;;;;;48.22;26.98;;;;;;;7.11;100.00;101148.25;5543211;32;35236;-88
2022/10/13 04:38:32;;;;;;;44.63;28.00;;;;;;;7.18;100.00;101145.50;5550587;32;33882;-88
2022/10/13 04:41:35;;;;;;;45.12;27.13;;;;;;;7.14;100.00;101148.19;5562167;32;35008;-88
2022/10/13 04:44:37;;;;;;;43.38;27.95;;;;;;;7.13;100.00;101148.22;5550235;32;32574;-87
2022/10/13 04:47:41;;;;;;;46.28;27.10;;;;;;;7.10;100.00;101149.16;5565910;32;33890;-88
2022/10/13 04:50:44;;;;;;;44.60;26.17;;;;;;;7.14;100.00;101142.91;5574106;32;34865;-88
2022/10/13 04:53:47;;;;;;;45.88;27.95;;;;;;;7.31;100.00;101146.94;5564028;32;34109;-85
2022/10/13 04:56:51;;;;;;;45.50;26.25;;;;;;;7.30;100.00;101146.97;5561747;32;34043;-85
2022/10/13 04:59:53;;;;;;;40.75;26.10;;;;;;;7.28;100.00;101144.34;5562011;32;34160;-88
2022/10/13 05:02:56;;;;;;;40.35;25.52;;;;;;;7.20;100.00;101151.59;5548177;32;32676;-87
2022/10/13 05:05:59;;;;;;;38.60;24.63;;;;;;;7.19;100.00;101150.69;5562213;32;33981;-88
2022/10/13 05:09:02;;;;;;;40.10;25.80;;;;;;;7.10;100.00;101149.16;5572965;32;33783;-87
2022/10/13 05:12:05;;;;;;;40.78;25.73;;;;;;;7.11;100.00;101152.66;5570779;32;34632;-89
2022/10/13 05:15:08;;;;;;;41.50;24.90;;;;;;;7.09;100.00;101152.69;5548208;32;33348;-86
2022/10/13 05:18:11;;;;;;;39.00;25.92;;;;;;;7.12;100.00;101143.84;5561265;32;34047;-86
2022/10/13 05:21:17;;;;;;;41.85;25.25;;;;;;;7.15;100.00;101152.56;5561603;32;33768;-87
2022/10/13 05:24:29;;;;;;;36.95;24.60;;;;;;;7.21;100.00;101153.31;5552283;32;33531;-85
2022/10/13 05:27:32;;;;;;;37.40;25.27;;;;;;;7.20;100.00;101155.06;5548890;32;32946;-86
2022/10/13 05:30:35;;;;;;;41.92;25.10;;;;;;;7.21;100.00;101154.19;5536556;32;36002;-86
2022/10/13 05:33:38;;;;;;;36.22;25.10;;;;;;;7.25;100.00;101161.12;5547272;32;34804;-86
2022/10/13 05:36:41;;;;;;;42.17;25.52;;;;;;;7.31;100.00;101162.75;5525834;32;33292;-86
2022/10/13 05:39:43;;;;;;;46.22;25.48;;;;;;;7.38;100.00;101153.78;5533078;32;34032;-86
2022/10/13 05:42:51;;;;;;;40.42;24.95;;;;;;;7.45;100.00;101159.81;5552217;32;34615;-86
2022/10/13 05:45:53;;;;;;;38.40;24.80;;;;;;;7.44;100.00;101159.84;5547530;32;35267;-86
2022/10/13 05:48:57;;;;;;;42.75;24.00;;;;;;;7.51;100.00;101151.75;5562613;32;34953;-85
2022/10/13 05:52:06;;;;;;;37.63;24.17;;;;;;;7.52;100.00;101161.38;5565073;32;35248;-86
2022/10/13 05:55:12;;;;;;;38.75;24.20;;;;;;;7.62;100.00;101166.41;5552769;32;33368;-91
2022/10/13 05:58:14;;;;;;;34.72;24.02;;;;;;;7.72;100.00;101165.31;5541133;32;32489;-91
2022/10/13 06:01:23;;;;;;;37.25;24.08;;;;;;;7.78;100.00;101173.06;5538066;32;32432;-87
2022/10/13 06:04:40;;;;;;;38.30;23.98;;;;;;;7.92;100.00;101172.72;5548991;32;34406;-86
2022/10/13 06:07:45;;;;;;;40.95;24.73;;;;;;;7.88;100.00;101176.34;5540574;32;34584;-86
2022/10/13 06:14:23;;;;;;;39.50;24.67;;;;;;;8.07;100.00;101176.75;5579080;26;34581;-89
2022/10/13 06:17:26;;;;;;;36.72;24.37;;;;;;;8.27;100.00;101179.75;5583397;31;33786;-88
2022/10/13 06:20:28;;;;;;;39.58;24.35;;;;;;;8.38;100.00;101182.09;5604501;31;34525;-87
2022/10/13 06:23:31;;;;;;;36.63;24.50;;;;;;;8.55;100.00;101184.31;5607631;31;33723;-89
2022/10/13 06:26:33;;;;;;;41.45;24.15;;;;;;;8.75;100.00;101178.44;5590830;31;32635;-87
2022/10/13 06:29:36;;;;;;;41.13;24.45;;;;;;;8.82;100.00;101182.66;5588700;31;32093;-87
2022/10/13 06:32:39;;;;;;;35.17;23.62;;;;;;;8.92;100.00;101183.25;5594806;31;33789;-86
2022/10/13 06:35:42;;;;;;;37.53;23.83;;;;;;;9.05;100.00;101186.37;5587286;31;34095;-86
2022/10/13 06:38:46;;;;;;;37.75;22.65;;;;;;;9.27;100.00;101185.72;5611994;31;34315;-85
2022/10/13 06:41:49;;;;;;;33.17;23.02;;;;;;;9.48;100.00;101191.25;5610005;31;34735;-85
2022/10/13 06:44:52;;;;;;;38.13;22.83;;;;;;;9.54;100.00;101197.22;5601382;31;32956;-86
2022/10/13 06:47:57;;;;;;;40.42;22.90;;;;;;;9.63;100.00;101190.75;5614316;31;35145;-86
2022/10/13 06:51:01;;;;;;;39.95;23.35;;;;;;;9.67;100.00;101188.88;5618244;31;35014;-87
2022/10/13 06:54:04;;;;;;;56.37;23.45;;;;;;;9.83;100.00;101190.09;5582089;31;33102;-88
2022/10/13 06:57:07;;;;;;;36.83;23.15;;;;;;;10.10;100.00;101189.19;5602627;31;34296;-88
2022/10/13 07:00:13;;;;;;;32.22;21.87;;;;;;;10.22;100.00;101183.44;5569615;31;32467;-89
2022/10/13 07:03:16;;;;;;;38.05;24.05;;;;;;;10.49;100.00;101187.88;5587984;31;34718;-88
2022/10/13 07:06:19;;;;;;;34.47;22.73;;;;;;;10.62;100.00;101194.44;5581566;31;33814;-87
2022/10/13 07:09:24;;;;;;;39.65;24.30;;;;;;;10.61;100.00;101192.72;5600082;31;34761;-89
2022/10/13 07:12:26;;;;;;;38.58;23.75;;;;;;;10.75;100.00;101189.56;5588073;31;34750;-88
2022/10/13 07:15:29;;;;;;;37.40;23.77;;;;;;;11.02;100.00;101192.06;5587486;31;34302;-88
2022/10/13 07:18:32;;;;;;;39.13;23.75;;;;;;;11.57;100.00;101185.50;5573723;31;32696;-88
2022/10/13 07:21:34;;;;;;;34.47;22.98;;;;;;;11.77;100.00;101182.97;5562792;31;34549;-89
2022/10/13 07:24:37;;;;;;;31.58;22.37;;;;;;;12.26;100.00;101190.63;5593686;31;33807;-91
2022/10/13 07:53:06;;;;;;;26.70;19.73;;;;;;;26.67;45.46;101173.72;5505117;32;20116;-89
2022/10/13 07:56:11;;;;;;;24.70;19.67;;;;;;;26.91;40.69;101177.56;5507115;32;33988;-91
2022/10/13 08:02:58;;;;;;;25.00;18.58;;;;;;;23.58;47.00;101178.56;5180566;30;20092;-89
2022/10/13 08:06:04;;;;;;;28.17;18.87;;;;;;;24.15;47.27;101169.72;5547411;32;32614;-92
2022/10/13 08:20:29;;;;;;;25.70;19.23;;;;;;;19.41;56.89;101167.84;5349566;26;20430;-90
2022/10/13 08:27:37;;;;;;;25.67;18.08;;;;;;;20.20;57.56;101159.22;841125;30;20561;-92
2022/10/13 08:31:01;;;;;;;23.05;18.52;;;;;;;21.44;51.48;101152.09;5510241;32;33253;-89
2022/10/13 08:34:04;;;;;;;24.98;18.67;;;;;;;20.45;52.69;101157.28;5508845;32;34346;-88
2022/10/13 08:37:14;;;;;;;28.70;18.00;;;;;;;19.38;53.53;101155.50;5560248;26;34613;-88
2022/10/13 08:40:21;;;;;;;30.08;18.37;;;;;;;18.62;57.96;101160.09;5490481;32;31835;-87
2022/10/13 08:43:25;;;;;;;26.20;18.95;;;;;;;18.74;59.57;101145.78;5474782;32;32481;-87
2022/10/13 08:46:38;;;;;;;29.83;18.62;;;;;;;18.96;55.63;101150.44;5476763;32;33489;-88
2022/10/13 08:49:42;;;;;;;28.15;18.62;;;;;;;18.67;56.24;101149.88;5476840;32;32878;-88
2022/10/13 09:00:22;;;;;;;26.95;18.80;;;;;;;17.37;63.18;101141.69;4805318;30;20111;-87
2022/10/13 09:03:27;;;;;;;30.85;19.23;;;;;;;17.27;63.57;101141.44;5509640;32;33860;-91
2022/10/13 09:06:45;;;;;;;25.40;16.52;;;;;;;16.69;64.97;101136.19;5495912;32;33853;-91
2022/10/13 09:09:51;;;;;;;26.65;17.23;;;;;;;16.66;63.59;101137.25;5508023;32;34136;-87
2022/10/13 09:12:54;;;;;;;28.12;15.63;;;;;;;16.56;64.19;101126.25;5505076;32;34223;-87
2022/10/13 09:15:57;;;;;;;25.67;16.30;;;;;;;17.04;64.92;101127.72;5510905;32;34152;-88
2022/10/13 09:19:24;;;;;;;29.65;15.45;;;;;;;17.01;63.22;101132.41;5511904;32;34487;-88
2022/10/13 09:22:29;;;;;;;23.95;14.70;;;;;;;17.08;62.00;101125.69;5497590;32;33002;-87
2022/10/13 09:25:41;;;;;;;22.40;13.93;;;;;;;17.28;59.06;101124.41;5496031;32;33976;-87
2022/10/13 09:28:44;;;;;;;19.42;13.77;;;;;;;17.56;60.51;101130.59;5511335;32;34247;-88
2022/10/13 09:35:24;;;;;;;22.67;12.77;;;;;;;17.97;57.57;101133.22;5515577;32;20116;-91
2022/10/13 09:38:34;;;;;;;21.65;13.05;;;;;;;17.89;60.37;101131.06;5547597;26;33021;-88
2022/10/13 09:41:38;;;;;;;23.25;12.73;;;;;;;17.82;59.76;101119.91;5508620;32;34610;-88
2022/10/13 09:44:41;;;;;;;20.98;13.40;;;;;;;18.53;58.89;101118.63;5510173;32;33591;-86
2022/10/13 09:48:06;;;;;;;21.35;12.55;;;;;;;18.58;56.08;101120.03;5510403;32;34111;-86
2022/10/13 09:51:29;;;;;;;21.20;13.80;;;;;;;18.79;57.25;101115.88;5510829;32;33968;-87
2022/10/13 09:54:41;;;;;;;18.05;12.73;;;;;;;19.09;56.77;101117.31;5490715;32;34803;-87
2022/10/13 09:57:48;;;;;;;17.73;13.30;;;;;;;19.45;55.31;101106.62;5477805;32;35182;-87
2022/10/13 10:00:52;;;;;;;18.45;11.88;;;;;;;19.69;54.70;101106.56;5492761;32;33026;-87
2022/10/13 10:04:08;;;;;;;21.30;13.48;;;;;;;19.94;53.90;101104.66;5499260;32;33029;-88
2022/10/13 10:07:26;;;;;;;20.65;12.88;;;;;;;19.79;54.01;101104.00;5511320;32;34599;-86
2022/10/13 10:10:34;;;;;;;16.85;12.55;;;;;;;20.44;52.64;101100.78;5499222;32;32846;-87
2022/10/13 10:13:44;;;;;;;21.20;11.65;;;;;;;20.29;51.60;101106.44;5510560;32;33816;-87
2022/10/13 10:17:13;;;;;;;21.45;11.40;;;;;;;20.30;53.66;101091.13;5497602;32;32874;-87
2022/10/13 10:20:15;;;;;;;18.50;10.77;;;;;;;20.79;52.87;101086.31;5492998;32;33354;-88
2022/10/13 10:23:26;;;;;;;21.33;11.15;;;;;;;20.72;51.09;101083.25;5508467;32;34044;-87
2022/10/13 10:26:54;;;;;;;21.50;11.40;;;;;;;21.11;49.99;101069.31;5501759;32;33650;-87
2022/10/13 10:30:05;;;;;;;18.98;11.07;;;;;;;21.77;49.16;101080.06;5510212;32;33934;-85
2022/10/13 10:33:14;;;;;;;17.02;11.15;;;;;;;22.80;44.95;101076.50;5512366;32;34783;-90
2022/10/13 10:36:40;;;;;;;20.00;11.90;;;;;;;25.29;39.66;101072.72;5510436;32;33914;-87
2022/10/13 10:39:52;;;;;;;21.65;10.85;;;;;;;24.15;41.36;101065.84;5516690;32;33684;-87
2022/10/13 10:43:07;;;;;;;16.67;10.70;;;;;;;24.20;41.57;101066.28;5509022;32;33945;-86
2022/10/13 10:46:17;;;;;;;20.90;11.80;;;;;;;23.08;43.45;101060.44;5491203;32;34560;-86
2022/10/13 10:49:24;;;;;;;17.95;11.70;;;;;;;22.39;44.49;101060.28;5501423;32;34475;-88
2022/10/13 10:52:42;;;;;;;21.50;10.85;;;;;;;21.90;47.14;101061.81;5502894;32;34803;-87
2022/10/13 10:56:10;;;;;;;21.25;12.02;;;;;;;21.70;46.65;101043.75;5492181;32;34478;-87
2022/10/13 10:59:16;;;;;;;15.27;10.38;;;;;;;21.77;46.73;101045.81;5503657;32;32826;-86
2022/10/13 11:02:37;;;;;;;14.70;9.20;;;;;;;26.28;38.40;101039.06;5508522;32;34832;-86
2022/10/13 11:06:02;;;;;;;15.23;9.10;;;;;;;27.36;34.85;101031.13;5491586;32;33996;-85
2022/10/13 11:09:09;;;;;;;17.87;9.73;;;;;;;25.35;38.72;101022.38;5499003;32;33599;-89
2022/10/13 11:12:18;;;;;;;17.23;9.90;;;;;;;23.22;43.46;101015.84;5502826;32;33599;-87
2022/10/13 11:15:27;;;;;;;11.98;9.15;;;;;;;22.34;45.44;101018.31;5499439;32;33387;-86
2022/10/13 11:18:58;;;;;;;18.02;11.48;;;;;;;22.03;47.53;101014.81;5501577;32;34313;-85
2022/10/13 11:22:02;;;;;;;16.30;10.73;;;;;;;21.80;46.42;101014.97;5481671;32;32641;-86
2022/10/13 11:25:41;;;;;;;13.35;10.10;;;;;;;23.46;42.45;101001.91;5494783;32;34404;-86
2022/10/13 11:28:45;;;;;;;16.80;9.88;;;;;;;22.78;43.52;100998.19;5488490;32;33565;-86
2022/10/13 11:31:53;;;;;;;14.68;9.60;;;;;;;21.89;46.65;100995.28;5484571;32;33871;-85
2022/10/13 11:35:03;;;;;;;13.98;9.73;;;;;;;21.43;49.49;100997.41;5489267;32;34826;-85
2022/10/13 11:38:22;;;;;;;12.98;9.40;;;;;;;21.12;48.32;100990.09;5492704;32;35081;-85
2022/10/13 11:41:30;;;;;;;15.88;9.50;;;;;;;20.43;50.92;100984.06;5508654;32;34727;-85
2022/10/13 11:45:00;;;;;;;12.57;8.07;;;;;;;20.55;51.01;100979.53;5507183;32;34455;-85
2022/10/13 11:48:30;;;;;;;14.63;9.60;;;;;;;20.78;50.06;100983.97;5495411;32;34496;-86
2022/10/13 11:51:36;;;;;;;15.75;8.85;;;;;;;20.40;51.47;100967.28;5508771;32;34339;-85
2022/10/13 11:54:48;;;;;;;10.80;9.07;;;;;;;19.99;52.27;100967.88;5507341;32;33569;-85
2022/10/13 11:58:05;;;;;;;13.62;9.40;;;;;;;20.10;52.15;100961.59;5515314;32;34573;-86
2022/10/13 12:01:14;;;;;;;14.23;9.20;;;;;;;19.91;52.10;100948.72;5515532;32;34081;-87
2022/10/13 12:04:20;;;;;;;15.18;9.95;;;;;;;20.34;52.10;100957.91;5507878;32;34075;-86
2022/10/13 12:07:24;;;;;;;19.25;10.35;;;;;;;20.04;51.30;100951.34;5493680;32;32506;-86
2022/10/13 12:10:33;;;;;;;14.23;10.30;;;;;;;19.59;52.47;100953.03;5495375;32;33686;-86
2022/10/13 12:13:37;;;;;;;17.25;10.55;;;;;;;19.84;52.69;100944.81;5507574;32;34011;-86
2022/10/13 12:16:52;;;;;;;14.60;9.77;;;;;;;20.06;51.79;100938.59;5493093;32;33228;-86
2022/10/13 12:20:03;;;;;;;19.20;9.25;;;;;;;19.70;52.77;100932.50;5488497;32;34040;-86
2022/10/13 12:23:16;;;;;;;12.02;9.35;;;;;;;19.88;52.86;100928.31;5505537;32;35195;-86
2022/10/13 12:26:21;;;;;;;14.32;9.20;;;;;;;19.47;54.37;100933.31;5501902;32;33882;-86
2022/10/13 12:29:26;;;;;;;12.35;9.95;;;;;;;19.62;53.50;100927.72;5494202;32;32891;-86
2022/10/13 12:32:34;;;;;;;14.25;10.15;;;;;;;19.53;52.91;100927.44;5513077;32;34040;-86
2022/10/13 12:35:37;;;;;;;17.48;9.88;;;;;;;19.55;54.24;100924.66;5492796;32;34011;-89
2022/10/13 12:38:46;;;;;;;15.80;10.52;;;;;;;19.67;53.72;100926.34;5494264;32;33789;-90
2022/10/13 12:41:53;;;;;;;15.52;9.85;;;;;;;19.57;53.83;100920.03;5493598;32;34096;-86
2022/10/13 12:44:58;;;;;;;13.18;10.07;;;;;;;19.50;54.51;100914.25;5485660;32;33822;-86
2022/10/13 12:48:00;;;;;;;20.98;11.00;;;;;;;19.60;53.29;100910.81;5477244;32;32926;-87
2022/10/13 12:51:18;;;;;;;16.65;11.02;;;;;;;19.17;54.30;100917.75;5488992;32;34276;-86
2022/10/13 12:54:27;;;;;;;23.30;10.55;;;;;;;19.18;54.94;100909.59;5475146;32;34170;-87
2022/10/13 12:57:37;;;;;;;18.40;11.10;;;;;;;18.98;55.63;100911.09;5474508;32;34007;-87
2022/10/13 13:00:40;;;;;;;18.60;11.10;;;;;;;19.13;55.80;100906.38;5473937;32;33221;-87
2022/10/13 13:03:43;;;;;;;15.80;11.88;;;;;;;19.31;55.45;100909.47;5484892;27;33757;-88
2022/10/13 13:06:57;;;;;;;20.40;11.52;;;;;;;19.17;54.16;100904.31;5495669;32;34343;-87
2022/10/13 13:10:06;;;;;;;20.00;10.98;;;;;;;19.18;54.83;100904.19;5486036;32;34123;-86
2022/10/13 13:13:13;;;;;;;15.77;11.63;;;;;;;19.21;54.35;100900.41;5508967;32;34554;-86
2022/10/13 13:16:19;;;;;;;17.52;11.35;;;;;;;19.08;54.90;100904.06;5508331;32;33611;-87
2022/10/13 13:19:22;;;;;;;16.25;11.05;;;;;;;19.29;54.56;100891.72;5490074;32;32671;-87
2022/10/13 13:22:25;;;;;;;17.25;12.27;;;;;;;19.50;54.25;100891.88;5510551;32;33731;-86
2022/10/13 13:25:28;;;;;;;19.80;11.23;;;;;;;19.14;54.03;100897.34;5511007;32;34563;-86
2022/10/13 13:28:31;;;;;;;14.98;10.60;;;;;;;19.05;55.33;100881.94;5497416;32;32431;-87
2022/10/13 13:31:37;;;;;;;20.00;11.18;;;;;;;19.19;55.85;100888.91;5508495;32;33863;-87
2022/10/13 13:34:40;;;;;;;18.10;11.52;;;;;;;19.02;54.48;100882.13;5489631;32;32569;-87
2022/10/13 13:37:49;;;;;;;16.50;10.50;;;;;;;19.04;54.78;100875.69;5510566;32;34479;-87
2022/10/13 13:40:51;;;;;;;14.77;11.07;;;;;;;19.23;54.62;100871.56;5488781;32;32441;-87
2022/10/13 13:43:54;;;;;;;14.48;10.13;;;;;;;19.13;54.87;100874.13;5490552;32;33966;-87
2022/10/13 13:46:56;;;;;;;14.40;10.50;;;;;;;18.94;56.05;100874.66;5497081;32;32350;-87
2022/10/13 13:49:59;;;;;;;17.62;10.45;;;;;;;19.12;55.26;100870.56;5507648;32;32733;-87
2022/10/13 13:53:03;;;;;;;27.20;10.60;;;;;;;19.10;55.23;100864.47;5513425;32;34763;-87
2022/10/13 13:56:11;;;;;;;14.90;10.52;;;;;;;19.07;55.71;100862.00;5505545;32;34537;-86
2022/10/13 13:59:14;;;;;;;16.50;10.65;;;;;;;18.94;56.14;100866.59;5496485;32;33771;-87
2022/10/13 14:02:21;;;;;;;15.38;10.20;;;;;;;18.73;56.93;100869.97;5500560;32;33235;-86
2022/10/13 14:05:23;;;;;;;15.23;9.50;;;;;;;18.59;58.19;100861.16;5506410;32;34459;-91
2022/10/13 14:08:29;;;;;;;14.40;9.90;;;;;;;18.53;58.41;100864.28;5491747;32;32908;-91
2022/10/13 14:11:32;;;;;;;16.45;10.60;;;;;;;18.51;58.94;100868.91;5499460;32;32778;-88
2022/10/13 14:14:35;;;;;;;18.45;11.10;;;;;;;18.39;58.80;100862.66;5498186;32;34915;-87
2022/10/13 14:17:38;;;;;;;12.93;10.65;;;;;;;18.36;59.67;100870.91;5507985;32;34064;-87
2022/10/13 14:20:41;;;;;;;19.85;10.90;;;;;;;18.06;60.14;100864.19;5492634;32;33955;-87
2022/10/13 14:23:45;;;;;;;14.13;10.38;;;;;;;18.13;60.95;100859.22;5484950;32;33845;-87
2022/10/13 14:26:48;;;;;;;18.02;10.52;;;;;;;18.28;60.01;100860.78;5503507;32;34153;-87
2022/10/13 14:29:51;;;;;;;17.85;10.85;;;;;;;18.17;60.45;100856.19;5494091;32;33444;-87
2022/10/13 14:32:53;;;;;;;18.20;10.82;;;;;;;18.23;60.77;100857.56;5490220;32;32568;-87
2022/10/13 14:36:03;;;;;;;18.48;11.23;;;;;;;18.06;60.55;100858.84;5491322;32;34037;-88
2022/10/13 14:39:06;;;;;;;18.40;10.57;;;;;;;17.96;62.99;100855.06;5496109;32;34049;-87
2022/10/13 14:42:09;;;;;;;15.73;11.27;;;;;;;18.02;62.14;100860.84;5488795;32;36318;-88
2022/10/13 14:45:12;;;;;;;16.48;11.10;;;;;;;17.87;61.63;100853.91;5490347;32;34907;-87
2022/10/13 14:48:14;;;;;;;21.60;10.77;;;;;;;17.89;63.25;100846.59;5491127;32;34807;-88
2022/10/13 14:51:17;;;;;;;18.85;11.07;;;;;;;17.92;63.54;100854.44;5490390;32;34085;-88
2022/10/13 14:54:20;;;;;;;17.37;11.10;;;;;;;17.94;62.28;100854.34;5490926;32;34805;-87
2022/10/13 14:57:22;;;;;;;18.58;11.02;;;;;;;17.87;63.02;100853.91;5489479;32;34649;-87
2022/10/13 15:00:26;;;;;;;21.20;11.45;;;;;;;17.79;63.25;100841.06;5489601;32;32637;-87
2022/10/13 15:03:29;;;;;;;15.48;10.48;;;;;;;17.68;64.74;100849.88;5494360;32;33966;-87
2022/10/13 15:06:32;;;;;;;16.27;10.70;;;;;;;17.47;67.14;100841.56;5495733;32;32698;-87
2022/10/13 15:09:35;;;;;;;18.12;11.57;;;;;;;17.34;68.79;100847.81;5509715;32;34505;-87
2022/10/13 15:12:58;;;;;;;18.62;11.90;;;;;;;17.30;67.42;100842.78;5509932;32;33639;-87
2022/10/13 15:16:02;;;;;;;20.05;11.82;;;;;;;17.17;68.69;100840.09;5509839;32;33861;-87
2022/10/13 15:19:06;;;;;;;15.50;11.27;;;;;;;17.04;70.18;100845.47;5509552;32;34347;-87
2022/10/13 15:22:08;;;;;;;25.73;10.85;;;;;;;16.88;71.01;100841.13;5509394;32;33736;-87
2022/10/13 15:25:11;;;;;;;15.70;11.12;;;;;;;16.74;72.96;100843.91;5495873;32;33294;-87
2022/10/13 15:28:13;;;;;;;16.02;10.73;;;;;;;16.59;74.79;100849.34;5495558;32;33777;-87
2022/10/13 15:31:18;;;;;;;18.05;10.50;;;;;;;16.39;77.14;100837.31;5509349;32;33308;-87
2022/10/13 15:34:20;;;;;;;13.55;10.23;;;;;;;16.21;78.48;100836.72;5495503;32;32420;-87
2022/10/13 15:37:23;;;;;;;18.10;10.88;;;;;;;16.08;78.20;100837.50;5495593;32;32276;-87
